East Franklin, Vermont
Current Conditions -  °F | °C
As of 5:55 AM on Thursday 23 Oct 2014 (Local Time) from KFSO Reporting Station
Overcast Overcast  
Wind Chill:   Ceiling: 6000
Heat Index:   Visibility: 10mi
Dew Point:   Wind: 15mph
Humidity: 79%   Direction: 360°N
Pressure: 30.04"   Gusts: 24mph
Location:  44.9656°N, 72.8975°W
Report Text: KFSO 230955Z AUTO 36013G21KT 10SM OVC060 06/02 A3004 RMK AO2 T00550021
Loading
Personal Weather Stations






























Interactive Weather Map
Tropical Storm Tracking
New forecast layout! Learn more

10-Day Weather Forecast

Advertisements
Track Severe Weather on mobile